sensor_id;sensor_type;location;lat;lon;timestamp;P1;durP1;ratioP1;P2;durP2;ratioP2
12314;SDS011;23886;46.614;14.276;2023-02-01T00:02:25;16.23;;;8.30;;
12314;SDS011;23886;46.614;14.276;2023-02-01T00:04:52;14.20;;;8.20;;
12314;SDS011;23886;46.614;14.276;2023-02-01T00:07:19;14.47;;;8.37;;
12314;SDS011;23886;46.614;14.276;2023-02-01T00:09:46;16.40;;;8.30;;
12314;SDS011;23886;46.614;14.276;2023-02-01T00:12:14;16.97;;;9.23;;
12314;SDS011;23886;46.614;14.276;2023-02-01T00:14:41;15.50;;;8.50;;
12314;SDS011;23886;46.614;14.276;2023-02-01T00:17:08;15.20;;;8.40;;
12314;SDS011;23886;46.614;14.276;2023-02-01T00:19:35;18.90;;;9.03;;
12314;SDS011;23886;46.614;14.276;2023-02-01T00:22:02;20.27;;;9.53;;
12314;SDS011;23886;46.614;14.276;2023-02-01T00:24:29;15.93;;;9.07;;
12314;SDS011;23886;46.614;14.276;2023-02-01T00:26:56;15.83;;;7.70;;
12314;SDS011;23886;46.614;14.276;2023-02-01T00:29:24;14.40;;;7.67;;
12314;SDS011;23886;46.614;14.276;2023-02-01T00:31:51;15.63;;;7.87;;
12314;SDS011;23886;46.614;14.276;2023-02-01T00:34:18;16.37;;;8.07;;
12314;SDS011;23886;46.614;14.276;2023-02-01T00:36:46;15.67;;;8.07;;
12314;SDS011;23886;46.614;14.276;2023-02-01T00:39:14;17.63;;;9.10;;
12314;SDS011;23886;46.614;14.276;2023-02-01T00:41:41;18.30;;;8.77;;
12314;SDS011;23886;46.614;14.276;2023-02-01T00:44:09;17.70;;;9.77;;
12314;SDS011;23886;46.614;14.276;2023-02-01T00:46:37;19.83;;;10.17;;
12314;SDS011;23886;46.614;14.276;2023-02-01T00:49:04;21.17;;;12.10;;
12314;SDS011;23886;46.614;14.276;2023-02-01T00:51:33;17.77;;;11.40;;
12314;SDS011;23886;46.614;14.276;2023-02-01T00:54:00;18.03;;;11.37;;
12314;SDS011;23886;46.614;14.276;2023-02-01T00:56:28;19.47;;;10.97;;
12314;SDS011;23886;46.614;14.276;2023-02-01T00:58:55;22.00;;;13.27;;
12314;SDS011;23886;46.614;14.276;2023-02-01T01:01:22;27.33;;;14.67;;
12314;SDS011;23886;46.614;14.276;2023-02-01T01:03:52;23.40;;;14.53;;
12314;SDS011;23886;46.614;14.276;2023-02-01T01:06:22;20.33;;;13.23;;
12314;SDS011;23886;46.614;14.276;2023-02-01T01:08:51;26.80;;;15.33;;
12314;SDS011;23886;46.614;14.276;2023-02-01T01:11:20;25.83;;;13.80;;
12314;SDS011;23886;46.614;14.276;2023-02-01T01:13:49;20.57;;;13.23;;
12314;SDS011;23886;46.614;14.276;2023-02-01T01:16:17;18.87;;;12.13;;
12314;SDS011;23886;46.614;14.276;2023-02-01T01:18:45;20.03;;;12.13;;
12314;SDS011;23886;46.614;14.276;2023-02-01T01:21:14;22.57;;;13.97;;
12314;SDS011;23886;46.614;14.276;2023-02-01T01:23:42;24.83;;;14.30;;
12314;SDS011;23886;46.614;14.276;2023-02-01T01:26:12;18.90;;;12.23;;
12314;SDS011;23886;46.614;14.276;2023-02-01T01:28:41;17.07;;;10.23;;
12314;SDS011;23886;46.614;14.276;2023-02-01T01:31:08;27.10;;;15.23;;
12314;SDS011;23886;46.614;14.276;2023-02-01T01:33:35;17.83;;;11.03;;
12314;SDS011;23886;46.614;14.276;2023-02-01T01:36:04;16.10;;;10.40;;
12314;SDS011;23886;46.614;14.276;2023-02-01T01:38:32;34.87;;;18.70;;
12314;SDS011;23886;46.614;14.276;2023-02-01T01:41:00;31.40;;;18.30;;
12314;SDS011;23886;46.614;14.276;2023-02-01T01:46:15;41.90;;;22.30;;
12314;SDS011;23886;46.614;14.276;2023-02-01T01:48:43;45.50;;;25.27;;
12314;SDS011;23886;46.614;14.276;2023-02-01T01:51:10;25.37;;;15.07;;
12314;SDS011;23886;46.614;14.276;2023-02-01T01:53:43;18.40;;;11.33;;
12314;SDS011;23886;46.614;14.276;2023-02-01T01:56:13;17.43;;;10.00;;
12314;SDS011;23886;46.614;14.276;2023-02-01T01:58:40;11.83;;;7.53;;
12314;SDS011;23886;46.614;14.276;2023-02-01T02:01:08;12.17;;;6.77;;
12314;SDS011;23886;46.614;14.276;2023-02-01T02:03:35;11.03;;;6.40;;
12314;SDS011;23886;46.614;14.276;2023-02-01T02:06:17;7.80;;;5.57;;
12314;SDS011;23886;46.614;14.276;2023-02-01T02:08:54;7.63;;;5.30;;
12314;SDS011;23886;46.614;14.276;2023-02-01T02:11:21;10.63;;;6.10;;
12314;SDS011;23886;46.614;14.276;2023-02-01T02:13:49;10.67;;;6.10;;
12314;SDS011;23886;46.614;14.276;2023-02-01T02:16:20;10.43;;;6.30;;
12314;SDS011;23886;46.614;14.276;2023-02-01T02:19:07;7.80;;;5.17;;
12314;SDS011;23886;46.614;14.276;2023-02-01T02:21:54;8.60;;;5.77;;
12314;SDS011;23886;46.614;14.276;2023-02-01T02:24:51;11.73;;;5.70;;
12314;SDS011;23886;46.614;14.276;2023-02-01T02:27:29;9.30;;;5.70;;
12314;SDS011;23886;46.614;14.276;2023-02-01T02:30:26;11.90;;;5.90;;
12314;SDS011;23886;46.614;14.276;2023-02-01T02:36:15;20.87;;;12.13;;
12314;SDS011;23886;46.614;14.276;2023-02-01T02:38:50;15.73;;;9.30;;
12314;SDS011;23886;46.614;14.276;2023-02-01T02:41:27;10.53;;;7.40;;
12314;SDS011;23886;46.614;14.276;2023-02-01T02:44:18;14.47;;;8.87;;
12314;SDS011;23886;46.614;14.276;2023-02-01T02:47:08;14.63;;;9.10;;
12314;SDS011;23886;46.614;14.276;2023-02-01T02:49:51;13.57;;;8.53;;
12314;SDS011;23886;46.614;14.276;2023-02-01T02:52:42;13.67;;;7.77;;
12314;SDS011;23886;46.614;14.276;2023-02-01T02:55:32;11.10;;;7.17;;
12314;SDS011;23886;46.614;14.276;2023-02-01T02:58:03;15.93;;;9.03;;
12314;SDS011;23886;46.614;14.276;2023-02-01T03:00:50;23.03;;;12.03;;
12314;SDS011;23886;46.614;14.276;2023-02-01T03:03:36;33.13;;;17.17;;
12314;SDS011;23886;46.614;14.276;2023-02-01T03:06:22;30.50;;;15.77;;
12314;SDS011;23886;46.614;14.276;2023-02-01T03:08:51;26.70;;;14.33;;
12314;SDS011;23886;46.614;14.276;2023-02-01T03:11:23;21.50;;;12.10;;
12314;SDS011;23886;46.614;14.276;2023-02-01T03:14:12;15.83;;;9.47;;
12314;SDS011;23886;46.614;14.276;2023-02-01T03:16:41;22.47;;;11.67;;
12314;SDS011;23886;46.614;14.276;2023-02-01T03:19:14;19.67;;;10.80;;
12314;SDS011;23886;46.614;14.276;2023-02-01T03:21:45;20.30;;;11.47;;
12314;SDS011;23886;46.614;14.276;2023-02-01T03:24:17;29.73;;;14.30;;
12314;SDS011;23886;46.614;14.276;2023-02-01T03:26:48;20.13;;;9.97;;
12314;SDS011;23886;46.614;14.276;2023-02-01T03:29:19;13.77;;;8.17;;
12314;SDS011;23886;46.614;14.276;2023-02-01T03:31:50;8.47;;;6.13;;
12314;SDS011;23886;46.614;14.276;2023-02-01T03:34:17;8.37;;;5.80;;
12314;SDS011;23886;46.614;14.276;2023-02-01T03:36:46;11.00;;;5.90;;
12314;SDS011;23886;46.614;14.276;2023-02-01T03:39:19;8.27;;;5.23;;
12314;SDS011;23886;46.614;14.276;2023-02-01T03:41:51;8.60;;;5.37;;
12314;SDS011;23886;46.614;14.276;2023-02-01T03:44:22;14.00;;;7.60;;
12314;SDS011;23886;46.614;14.276;2023-02-01T03:46:52;13.80;;;7.73;;
12314;SDS011;23886;46.614;14.276;2023-02-01T03:49:23;11.30;;;6.67;;
12314;SDS011;23886;46.614;14.276;2023-02-01T03:51:54;10.87;;;7.00;;
12314;SDS011;23886;46.614;14.276;2023-02-01T03:54:23;12.53;;;7.00;;
12314;SDS011;23886;46.614;14.276;2023-02-01T03:56:53;10.67;;;6.17;;
12314;SDS011;23886;46.614;14.276;2023-02-01T03:59:24;9.03;;;6.47;;
12314;SDS011;23886;46.614;14.276;2023-02-01T04:01:51;11.67;;;6.27;;
12314;SDS011;23886;46.614;14.276;2023-02-01T04:04:18;10.43;;;6.47;;
12314;SDS011;23886;46.614;14.276;2023-02-01T04:06:46;12.77;;;8.37;;
12314;SDS011;23886;46.614;14.276;2023-02-01T04:09:13;12.77;;;7.67;;
12314;SDS011;23886;46.614;14.276;2023-02-01T04:11:41;18.00;;;10.23;;
12314;SDS011;23886;46.614;14.276;2023-02-01T04:14:08;14.07;;;8.40;;
12314;SDS011;23886;46.614;14.276;2023-02-01T04:16:35;15.77;;;8.70;;
12314;SDS011;23886;46.614;14.276;2023-02-01T04:19:02;55.37;;;38.93;;
12314;SDS011;23886;46.614;14.276;2023-02-01T04:21:29;28.40;;;17.33;;
12314;SDS011;23886;46.614;14.276;2023-02-01T04:23:56;13.93;;;9.07;;
12314;SDS011;23886;46.614;14.276;2023-02-01T04:26:23;10.87;;;6.87;;
12314;SDS011;23886;46.614;14.276;2023-02-01T04:28:52;14.17;;;8.17;;
12314;SDS011;23886;46.614;14.276;2023-02-01T04:31:19;12.67;;;7.73;;
12314;SDS011;23886;46.614;14.276;2023-02-01T04:33:50;14.10;;;9.13;;
12314;SDS011;23886;46.614;14.276;2023-02-01T04:36:18;15.87;;;9.27;;
12314;SDS011;23886;46.614;14.276;2023-02-01T04:38:46;14.03;;;9.23;;
12314;SDS011;23886;46.614;14.276;2023-02-01T04:41:14;10.87;;;7.03;;
12314;SDS011;23886;46.614;14.276;2023-02-01T04:43:43;15.07;;;9.07;;
12314;SDS011;23886;46.614;14.276;2023-02-01T04:46:12;17.13;;;10.60;;
12314;SDS011;23886;46.614;14.276;2023-02-01T04:48:39;15.67;;;9.33;;
12314;SDS011;23886;46.614;14.276;2023-02-01T04:51:06;17.53;;;10.77;;
12314;SDS011;23886;46.614;14.276;2023-02-01T04:53:34;19.13;;;10.70;;
12314;SDS011;23886;46.614;14.276;2023-02-01T04:56:01;15.67;;;8.53;;
12314;SDS011;23886;46.614;14.276;2023-02-01T04:58:28;16.27;;;8.50;;
12314;SDS011;23886;46.614;14.276;2023-02-01T05:00:55;17.43;;;8.60;;
12314;SDS011;23886;46.614;14.276;2023-02-01T05:03:23;18.47;;;8.60;;
12314;SDS011;23886;46.614;14.276;2023-02-01T05:05:50;15.57;;;7.77;;
12314;SDS011;23886;46.614;14.276;2023-02-01T05:08:18;18.23;;;8.80;;
12314;SDS011;23886;46.614;14.276;2023-02-01T05:10:47;14.60;;;8.43;;
12314;SDS011;23886;46.614;14.276;2023-02-01T05:13:14;16.00;;;9.30;;
12314;SDS011;23886;46.614;14.276;2023-02-01T05:15:58;14.53;;;8.00;;
12314;SDS011;23886;46.614;14.276;2023-02-01T05:18:26;13.97;;;7.80;;
12314;SDS011;23886;46.614;14.276;2023-02-01T05:20:54;13.50;;;7.80;;
12314;SDS011;23886;46.614;14.276;2023-02-01T05:23:21;9.83;;;6.33;;
12314;SDS011;23886;46.614;14.276;2023-02-01T05:25:47;12.87;;;6.83;;
12314;SDS011;23886;46.614;14.276;2023-02-01T05:28:14;9.80;;;6.60;;
12314;SDS011;23886;46.614;14.276;2023-02-01T05:30:42;8.70;;;6.80;;
12314;SDS011;23886;46.614;14.276;2023-02-01T05:33:09;10.23;;;7.23;;
12314;SDS011;23886;46.614;14.276;2023-02-01T05:35:37;11.00;;;6.90;;
12314;SDS011;23886;46.614;14.276;2023-02-01T05:38:04;13.23;;;7.73;;
12314;SDS011;23886;46.614;14.276;2023-02-01T05:40:31;11.67;;;7.07;;
12314;SDS011;23886;46.614;14.276;2023-02-01T05:42:58;12.83;;;8.50;;
12314;SDS011;23886;46.614;14.276;2023-02-01T05:45:25;12.43;;;8.67;;
12314;SDS011;23886;46.614;14.276;2023-02-01T05:47:52;25.00;;;14.23;;
12314;SDS011;23886;46.614;14.276;2023-02-01T05:50:18;30.17;;;16.63;;
12314;SDS011;23886;46.614;14.276;2023-02-01T05:52:47;27.97;;;15.10;;
12314;SDS011;23886;46.614;14.276;2023-02-01T05:55:14;43.27;;;21.50;;
12314;SDS011;23886;46.614;14.276;2023-02-01T05:57:41;37.47;;;19.07;;
12314;SDS011;23886;46.614;14.276;2023-02-01T06:00:08;36.27;;;18.93;;
12314;SDS011;23886;46.614;14.276;2023-02-01T06:02:36;24.10;;;13.83;;
12314;SDS011;23886;46.614;14.276;2023-02-01T06:05:04;18.53;;;11.47;;
12314;SDS011;23886;46.614;14.276;2023-02-01T06:07:31;15.90;;;11.03;;
12314;SDS011;23886;46.614;14.276;2023-02-01T06:10:00;15.97;;;10.97;;
12314;SDS011;23886;46.614;14.276;2023-02-01T06:12:26;16.50;;;11.63;;
12314;SDS011;23886;46.614;14.276;2023-02-01T06:14:54;20.57;;;12.87;;
12314;SDS011;23886;46.614;14.276;2023-02-01T06:17:21;20.63;;;13.47;;
12314;SDS011;23886;46.614;14.276;2023-02-01T06:19:48;26.27;;;16.53;;
12314;SDS011;23886;46.614;14.276;2023-02-01T06:22:15;22.97;;;16.27;;
12314;SDS011;23886;46.614;14.276;2023-02-01T06:24:42;27.27;;;16.33;;
12314;SDS011;23886;46.614;14.276;2023-02-01T06:27:10;25.70;;;16.70;;
12314;SDS011;23886;46.614;14.276;2023-02-01T06:29:38;21.10;;;14.57;;
12314;SDS011;23886;46.614;14.276;2023-02-01T06:32:05;19.70;;;13.47;;
12314;SDS011;23886;46.614;14.276;2023-02-01T06:34:32;18.23;;;13.07;;
12314;SDS011;23886;46.614;14.276;2023-02-01T06:37:00;19.53;;;13.83;;
12314;SDS011;23886;46.614;14.276;2023-02-01T06:39:27;15.63;;;11.43;;
12314;SDS011;23886;46.614;14.276;2023-02-01T06:41:54;16.30;;;11.77;;
12314;SDS011;23886;46.614;14.276;2023-02-01T06:44:22;21.17;;;12.13;;
12314;SDS011;23886;46.614;14.276;2023-02-01T06:46:49;15.10;;;10.27;;
12314;SDS011;23886;46.614;14.276;2023-02-01T06:49:16;18.30;;;10.83;;
12314;SDS011;23886;46.614;14.276;2023-02-01T06:51:43;11.97;;;8.80;;
12314;SDS011;23886;46.614;14.276;2023-02-01T06:54:10;15.10;;;9.50;;
12314;SDS011;23886;46.614;14.276;2023-02-01T06:56:37;27.47;;;14.57;;
12314;SDS011;23886;46.614;14.276;2023-02-01T06:59:04;30.37;;;14.53;;
12314;SDS011;23886;46.614;14.276;2023-02-01T07:01:32;49.53;;;16.30;;
12314;SDS011;23886;46.614;14.276;2023-02-01T07:04:00;39.83;;;14.87;;
12314;SDS011;23886;46.614;14.276;2023-02-01T07:06:27;30.00;;;14.77;;
12314;SDS011;23886;46.614;14.276;2023-02-01T07:08:53;20.87;;;13.30;;
12314;SDS011;23886;46.614;14.276;2023-02-01T07:11:21;20.87;;;12.63;;
12314;SDS011;23886;46.614;14.276;2023-02-01T07:13:49;28.47;;;12.80;;
12314;SDS011;23886;46.614;14.276;2023-02-01T07:16:17;23.03;;;13.90;;
12314;SDS011;23886;46.614;14.276;2023-02-01T07:18:46;31.37;;;16.10;;
12314;SDS011;23886;46.614;14.276;2023-02-01T07:21:14;22.70;;;14.77;;
12314;SDS011;23886;46.614;14.276;2023-02-01T07:23:41;18.73;;;12.77;;
12314;SDS011;23886;46.614;14.276;2023-02-01T07:26:09;22.53;;;12.40;;
12314;SDS011;23886;46.614;14.276;2023-02-01T07:28:38;24.63;;;12.67;;
12314;SDS011;23886;46.614;14.276;2023-02-01T07:31:06;19.13;;;12.07;;
12314;SDS011;23886;46.614;14.276;2023-02-01T07:33:34;18.73;;;11.20;;
12314;SDS011;23886;46.614;14.276;2023-02-01T07:36:03;17.87;;;11.10;;
12314;SDS011;23886;46.614;14.276;2023-02-01T07:38:32;20.00;;;11.00;;
12314;SDS011;23886;46.614;14.276;2023-02-01T07:41:00;20.07;;;10.93;;
12314;SDS011;23886;46.614;14.276;2023-02-01T07:43:28;20.20;;;11.87;;
12314;SDS011;23886;46.614;14.276;2023-02-01T07:45:55;19.33;;;11.40;;
12314;SDS011;23886;46.614;14.276;2023-02-01T07:48:23;19.30;;;11.30;;
12314;SDS011;23886;46.614;14.276;2023-02-01T07:50:56;18.23;;;11.77;;
12314;SDS011;23886;46.614;14.276;2023-02-01T07:53:25;22.47;;;12.80;;
12314;SDS011;23886;46.614;14.276;2023-02-01T07:55:52;13.87;;;10.40;;
12314;SDS011;23886;46.614;14.276;2023-02-01T07:58:21;14.97;;;9.40;;
12314;SDS011;23886;46.614;14.276;2023-02-01T08:00:48;13.37;;;9.50;;
12314;SDS011;23886;46.614;14.276;2023-02-01T08:03:32;12.87;;;9.70;;
12314;SDS011;23886;46.614;14.276;2023-02-01T08:05:59;13.90;;;10.77;;
12314;SDS011;23886;46.614;14.276;2023-02-01T08:08:27;14.17;;;10.03;;
12314;SDS011;23886;46.614;14.276;2023-02-01T08:10:56;15.03;;;10.43;;
12314;SDS011;23886;46.614;14.276;2023-02-01T08:13:24;15.17;;;10.60;;
12314;SDS011;23886;46.614;14.276;2023-02-01T08:15:51;17.73;;;11.10;;
12314;SDS011;23886;46.614;14.276;2023-02-01T08:18:18;15.33;;;10.73;;
12314;SDS011;23886;46.614;14.276;2023-02-01T08:20:45;14.93;;;10.80;;
12314;SDS011;23886;46.614;14.276;2023-02-01T08:23:12;16.00;;;11.03;;
12314;SDS011;23886;46.614;14.276;2023-02-01T08:25:41;16.53;;;11.20;;
12314;SDS011;23886;46.614;14.276;2023-02-01T08:28:08;24.03;;;12.00;;
12314;SDS011;23886;46.614;14.276;2023-02-01T08:30:36;14.30;;;10.37;;
12314;SDS011;23886;46.614;14.276;2023-02-01T08:33:04;17.47;;;10.73;;
12314;SDS011;23886;46.614;14.276;2023-02-01T08:35:32;23.57;;;13.73;;
12314;SDS011;23886;46.614;14.276;2023-02-01T08:38:00;24.53;;;13.47;;
12314;SDS011;23886;46.614;14.276;2023-02-01T08:40:27;26.13;;;14.60;;
12314;SDS011;23886;46.614;14.276;2023-02-01T08:42:56;20.70;;;13.33;;
12314;SDS011;23886;46.614;14.276;2023-02-01T08:45:23;18.87;;;12.90;;
12314;SDS011;23886;46.614;14.276;2023-02-01T08:47:53;17.43;;;12.23;;
12314;SDS011;23886;46.614;14.276;2023-02-01T08:50:20;18.90;;;12.53;;
12314;SDS011;23886;46.614;14.276;2023-02-01T08:52:48;21.40;;;12.03;;
12314;SDS011;23886;46.614;14.276;2023-02-01T08:55:15;17.93;;;12.37;;
12314;SDS011;23886;46.614;14.276;2023-02-01T08:57:43;16.33;;;12.10;;
12314;SDS011;23886;46.614;14.276;2023-02-01T09:00:13;17.43;;;12.07;;
12314;SDS011;23886;46.614;14.276;2023-02-01T09:02:41;23.23;;;11.83;;
12314;SDS011;23886;46.614;14.276;2023-02-01T09:05:08;15.23;;;11.33;;
12314;SDS011;23886;46.614;14.276;2023-02-01T09:07:35;17.30;;;10.90;;
12314;SDS011;23886;46.614;14.276;2023-02-01T09:10:03;14.50;;;10.60;;
12314;SDS011;23886;46.614;14.276;2023-02-01T09:12:31;16.80;;;10.73;;
12314;SDS011;23886;46.614;14.276;2023-02-01T09:14:59;19.20;;;10.83;;
12314;SDS011;23886;46.614;14.276;2023-02-01T09:17:27;16.63;;;10.80;;
12314;SDS011;23886;46.614;14.276;2023-02-01T09:19:55;16.77;;;11.33;;
12314;SDS011;23886;46.614;14.276;2023-02-01T09:22:22;18.67;;;11.00;;
12314;SDS011;23886;46.614;14.276;2023-02-01T09:24:49;16.10;;;10.90;;
12314;SDS011;23886;46.614;14.276;2023-02-01T09:27:16;14.17;;;10.83;;
12314;SDS011;23886;46.614;14.276;2023-02-01T09:29:43;19.23;;;11.10;;
12314;SDS011;23886;46.614;14.276;2023-02-01T09:32:10;13.57;;;10.50;;
12314;SDS011;23886;46.614;14.276;2023-02-01T09:34:38;16.60;;;11.47;;
12314;SDS011;23886;46.614;14.276;2023-02-01T09:37:05;15.73;;;10.57;;
12314;SDS011;23886;46.614;14.276;2023-02-01T09:39:32;17.37;;;10.13;;
12314;SDS011;23886;46.614;14.276;2023-02-01T09:42:06;17.27;;;9.70;;
12314;SDS011;23886;46.614;14.276;2023-02-01T09:44:46;15.43;;;9.80;;
12314;SDS011;23886;46.614;14.276;2023-02-01T09:47:23;16.13;;;9.87;;
12314;SDS011;23886;46.614;14.276;2023-02-01T09:49:55;18.57;;;8.87;;
12314;SDS011;23886;46.614;14.276;2023-02-01T09:52:28;14.10;;;8.93;;
12314;SDS011;23886;46.614;14.276;2023-02-01T09:54:59;16.50;;;10.53;;
12314;SDS011;23886;46.614;14.276;2023-02-01T09:57:33;15.70;;;9.53;;
12314;SDS011;23886;46.614;14.276;2023-02-01T10:00:16;14.23;;;8.57;;
12314;SDS011;23886;46.614;14.276;2023-02-01T10:02:46;8.77;;;7.53;;
12314;SDS011;23886;46.614;14.276;2023-02-01T10:05:16;11.07;;;8.27;;
12314;SDS011;23886;46.614;14.276;2023-02-01T10:07:50;10.50;;;7.20;;
12314;SDS011;23886;46.614;14.276;2023-02-01T10:10:28;11.67;;;7.63;;
12314;SDS011;23886;46.614;14.276;2023-02-01T10:16:04;15.90;;;8.00;;
12314;SDS011;23886;46.614;14.276;2023-02-01T10:18:44;13.27;;;8.57;;
12314;SDS011;23886;46.614;14.276;2023-02-01T10:21:25;14.67;;;9.20;;
12314;SDS011;23886;46.614;14.276;2023-02-01T10:24:18;13.37;;;7.93;;
12314;SDS011;23886;46.614;14.276;2023-02-01T10:26:55;11.73;;;7.80;;
12314;SDS011;23886;46.614;14.276;2023-02-01T10:29:30;17.17;;;8.33;;
12314;SDS011;23886;46.614;14.276;2023-02-01T10:32:01;14.87;;;7.23;;
12314;SDS011;23886;46.614;14.276;2023-02-01T10:34:30;11.53;;;7.33;;
12314;SDS011;23886;46.614;14.276;2023-02-01T10:37:01;11.17;;;7.30;;
12314;SDS011;23886;46.614;14.276;2023-02-01T10:39:37;14.63;;;7.13;;
12314;SDS011;23886;46.614;14.276;2023-02-01T10:42:04;9.27;;;6.60;;
12314;SDS011;23886;46.614;14.276;2023-02-01T10:44:31;12.87;;;6.63;;
12314;SDS011;23886;46.614;14.276;2023-02-01T10:47:08;15.93;;;7.30;;
12314;SDS011;23886;46.614;14.276;2023-02-01T10:49:37;12.63;;;7.27;;
12314;SDS011;23886;46.614;14.276;2023-02-01T10:52:12;14.33;;;7.73;;
12314;SDS011;23886;46.614;14.276;2023-02-01T10:54:42;18.93;;;8.53;;
12314;SDS011;23886;46.614;14.276;2023-02-01T10:57:10;23.77;;;9.33;;
12314;SDS011;23886;46.614;14.276;2023-02-01T10:59:45;17.97;;;10.20;;
12314;SDS011;23886;46.614;14.276;2023-02-01T11:02:26;17.10;;;9.80;;
12314;SDS011;23886;46.614;14.276;2023-02-01T11:05:00;17.30;;;10.97;;
12314;SDS011;23886;46.614;14.276;2023-02-01T11:07:30;21.37;;;11.10;;
12314;SDS011;23886;46.614;14.276;2023-02-01T11:09:59;15.97;;;10.33;;
12314;SDS011;23886;46.614;14.276;2023-02-01T11:12:28;13.43;;;9.30;;
12314;SDS011;23886;46.614;14.276;2023-02-01T11:14:57;12.97;;;8.23;;
12314;SDS011;23886;46.614;14.276;2023-02-01T11:17:32;12.90;;;8.30;;
12314;SDS011;23886;46.614;14.276;2023-02-01T11:20:02;11.47;;;8.03;;
12314;SDS011;23886;46.614;14.276;2023-02-01T11:22:33;12.87;;;7.53;;
12314;SDS011;23886;46.614;14.276;2023-02-01T11:25:01;10.30;;;7.33;;
12314;SDS011;23886;46.614;14.276;2023-02-01T11:27:34;10.03;;;6.87;;
12314;SDS011;23886;46.614;14.276;2023-02-01T11:30:02;12.00;;;6.90;;
12314;SDS011;23886;46.614;14.276;2023-02-01T11:32:30;12.43;;;6.53;;
12314;SDS011;23886;46.614;14.276;2023-02-01T11:34:59;10.63;;;6.67;;
12314;SDS011;23886;46.614;14.276;2023-02-01T11:37:28;9.77;;;7.40;;
12314;SDS011;23886;46.614;14.276;2023-02-01T11:40:01;10.67;;;7.40;;
12314;SDS011;23886;46.614;14.276;2023-02-01T11:42:30;10.77;;;8.20;;
12314;SDS011;23886;46.614;14.276;2023-02-01T11:45:16;13.70;;;8.40;;
12314;SDS011;23886;46.614;14.276;2023-02-01T11:47:45;14.30;;;10.03;;
12314;SDS011;23886;46.614;14.276;2023-02-01T11:50:14;13.40;;;9.13;;
12314;SDS011;23886;46.614;14.276;2023-02-01T11:52:56;15.17;;;8.93;;
12314;SDS011;23886;46.614;14.276;2023-02-01T11:55:39;10.20;;;7.80;;
12314;SDS011;23886;46.614;14.276;2023-02-01T12:01:15;13.53;;;8.33;;
12314;SDS011;23886;46.614;14.276;2023-02-01T12:03:53;12.63;;;7.63;;
12314;SDS011;23886;46.614;14.276;2023-02-01T12:06:34;12.03;;;7.47;;
12314;SDS011;23886;46.614;14.276;2023-02-01T12:09:14;12.20;;;7.70;;
12314;SDS011;23886;46.614;14.276;2023-02-01T12:12:06;10.40;;;7.10;;
12314;SDS011;23886;46.614;14.276;2023-02-01T12:14:54;12.63;;;7.50;;
12314;SDS011;23886;46.614;14.276;2023-02-01T12:17:40;11.90;;;7.00;;
12314;SDS011;23886;46.614;14.276;2023-02-01T12:20:31;9.60;;;6.33;;
12314;SDS011;23886;46.614;14.276;2023-02-01T12:23:27;13.73;;;8.50;;
12314;SDS011;23886;46.614;14.276;2023-02-01T12:26:08;14.73;;;9.37;;
12314;SDS011;23886;46.614;14.276;2023-02-01T12:29:04;15.13;;;6.90;;
12314;SDS011;23886;46.614;14.276;2023-02-01T12:31:43;13.10;;;7.70;;
12314;SDS011;23886;46.614;14.276;2023-02-01T12:34:34;11.53;;;6.63;;
12314;SDS011;23886;46.614;14.276;2023-02-01T12:37:31;10.32;;;7.00;;
12314;SDS011;23886;46.614;14.276;2023-02-01T12:40:15;9.33;;;6.73;;
12314;SDS011;23886;46.614;14.276;2023-02-01T12:42:52;10.20;;;7.40;;
12314;SDS011;23886;46.614;14.276;2023-02-01T12:45:27;10.73;;;7.23;;
12314;SDS011;23886;46.614;14.276;2023-02-01T12:47:59;10.70;;;6.90;;
12314;SDS011;23886;46.614;14.276;2023-02-01T12:50:36;9.00;;;6.67;;
12314;SDS011;23886;46.614;14.276;2023-02-01T12:53:12;12.63;;;6.90;;
12314;SDS011;23886;46.614;14.276;2023-02-01T12:55:46;9.40;;;6.70;;
12314;SDS011;23886;46.614;14.276;2023-02-01T12:58:17;10.27;;;6.57;;
12314;SDS011;23886;46.614;14.276;2023-02-01T13:00:50;7.57;;;6.43;;
12314;SDS011;23886;46.614;14.276;2023-02-01T13:03:30;10.20;;;6.27;;
12314;SDS011;23886;46.614;14.276;2023-02-01T13:06:05;7.87;;;6.47;;
12314;SDS011;23886;46.614;14.276;2023-02-01T13:08:39;8.33;;;6.77;;
12314;SDS011;23886;46.614;14.276;2023-02-01T13:11:12;8.70;;;6.60;;
12314;SDS011;23886;46.614;14.276;2023-02-01T13:13:46;12.33;;;6.93;;
12314;SDS011;23886;46.614;14.276;2023-02-01T13:16:23;12.17;;;7.50;;
12314;SDS011;23886;46.614;14.276;2023-02-01T13:18:57;7.17;;;6.40;;
12314;SDS011;23886;46.614;14.276;2023-02-01T13:21:31;11.03;;;6.07;;
12314;SDS011;23886;46.614;14.276;2023-02-01T13:24:03;9.40;;;6.50;;
12314;SDS011;23886;46.614;14.276;2023-02-01T13:26:30;8.77;;;6.97;;
12314;SDS011;23886;46.614;14.276;2023-02-01T13:28:58;8.60;;;7.00;;
12314;SDS011;23886;46.614;14.276;2023-02-01T13:31:33;10.60;;;7.77;;
12314;SDS011;23886;46.614;14.276;2023-02-01T13:37:27;10.73;;;8.60;;
12314;SDS011;23886;46.614;14.276;2023-02-01T13:40:17;10.63;;;8.53;;
12314;SDS011;23886;46.614;14.276;2023-02-01T13:43:00;11.60;;;7.40;;
12314;SDS011;23886;46.614;14.276;2023-02-01T13:45:32;8.63;;;6.57;;
12314;SDS011;23886;46.614;14.276;2023-02-01T13:48:04;10.37;;;6.90;;
12314;SDS011;23886;46.614;14.276;2023-02-01T13:50:41;13.07;;;7.70;;
12314;SDS011;23886;46.614;14.276;2023-02-01T13:53:13;9.90;;;6.70;;
12314;SDS011;23886;46.614;14.276;2023-02-01T13:55:45;8.63;;;6.63;;
12314;SDS011;23886;46.614;14.276;2023-02-01T13:58:17;12.30;;;6.83;;
12314;SDS011;23886;46.614;14.276;2023-02-01T14:00:46;15.23;;;7.33;;
12314;SDS011;23886;46.614;14.276;2023-02-01T14:03:18;9.87;;;6.70;;
12314;SDS011;23886;46.614;14.276;2023-02-01T14:05:57;12.00;;;6.17;;
12314;SDS011;23886;46.614;14.276;2023-02-01T14:08:44;11.80;;;6.20;;
12314;SDS011;23886;46.614;14.276;2023-02-01T14:11:34;13.80;;;9.53;;
12314;SDS011;23886;46.614;14.276;2023-02-01T14:23:19;8.23;;;6.37;;
12314;SDS011;23886;46.614;14.276;2023-02-01T14:26:02;9.00;;;5.93;;
12314;SDS011;23886;46.614;14.276;2023-02-01T14:28:35;8.53;;;5.77;;
12314;SDS011;23886;46.614;14.276;2023-02-01T14:31:13;9.57;;;6.43;;
12314;SDS011;23886;46.614;14.276;2023-02-01T14:33:55;5.83;;;5.23;;
12314;SDS011;23886;46.614;14.276;2023-02-01T14:36:25;9.20;;;5.53;;
12314;SDS011;23886;46.614;14.276;2023-02-01T14:39:17;6.77;;;5.87;;
12314;SDS011;23886;46.614;14.276;2023-02-01T14:41:54;10.60;;;5.37;;
12314;SDS011;23886;46.614;14.276;2023-02-01T14:44:28;9.97;;;5.80;;
12314;SDS011;23886;46.614;14.276;2023-02-01T14:50:00;8.87;;;5.70;;
12314;SDS011;23886;46.614;14.276;2023-02-01T14:52:49;10.23;;;6.20;;
12314;SDS011;23886;46.614;14.276;2023-02-01T14:55:27;10.20;;;6.10;;
12314;SDS011;23886;46.614;14.276;2023-02-01T14:58:00;9.30;;;6.30;;
12314;SDS011;23886;46.614;14.276;2023-02-01T15:00:31;10.63;;;6.57;;
12314;SDS011;23886;46.614;14.276;2023-02-01T15:03:13;11.87;;;9.30;;
12314;SDS011;23886;46.614;14.276;2023-02-01T15:05:54;8.77;;;6.47;;
12314;SDS011;23886;46.614;14.276;2023-02-01T15:08:23;7.67;;;5.90;;
12314;SDS011;23886;46.614;14.276;2023-02-01T15:10:53;6.87;;;5.67;;
12314;SDS011;23886;46.614;14.276;2023-02-01T15:13:23;7.87;;;6.37;;